sensor_id;sensor_type;location;lat;lon;timestamp;pressure;altitude;pressure_sealevel;temperature;humidity
51249;BME280;39642;47.556;18.728;2023-05-21T00:01:42;99746.16;;;20.44;54.48
51249;BME280;39642;47.556;18.728;2023-05-21T00:04:08;99740.84;;;20.44;54.48
51249;BME280;39642;47.556;18.728;2023-05-21T00:06:34;99753.22;;;20.43;54.49
51249;BME280;39642;47.556;18.728;2023-05-21T00:09:02;99756.72;;;20.44;54.51
51249;BME280;39642;47.556;18.728;2023-05-21T00:11:28;99750.59;;;20.43;54.48
51249;BME280;39642;47.556;18.728;2023-05-21T00:13:54;99747.94;;;20.43;54.48
51249;BME280;39642;47.556;18.728;2023-05-21T00:16:21;99756.72;;;20.44;54.46
51249;BME280;39642;47.556;18.728;2023-05-21T00:18:47;99751.44;;;20.44;54.45
51249;BME280;39642;47.556;18.728;2023-05-21T00:21:19;99746.22;;;20.42;54.46
51249;BME280;39642;47.556;18.728;2023-05-21T00:23:51;99743.50;;;20.44;54.44
51249;BME280;39642;47.556;18.728;2023-05-21T00:26:21;99738.22;;;20.44;54.42
51249;BME280;39642;47.556;18.728;2023-05-21T00:28:49;99744.47;;;20.43;54.41
51249;BME280;39642;47.556;18.728;2023-05-21T00:31:15;99740.00;;;20.43;54.42
51249;BME280;39642;47.556;18.728;2023-05-21T00:33:42;99748.87;;;20.42;54.41
51249;BME280;39642;47.556;18.728;2023-05-21T00:36:07;99751.50;;;20.42;54.41
51249;BME280;39642;47.556;18.728;2023-05-21T00:38:33;99759.44;;;20.42;54.39
51249;BME280;39642;47.556;18.728;2023-05-21T00:41:01;99755.03;;;20.43;54.38
51249;BME280;39642;47.556;18.728;2023-05-21T00:43:27;99762.09;;;20.42;54.38
51249;BME280;39642;47.556;18.728;2023-05-21T00:45:53;99750.66;;;20.42;54.37
51249;BME280;39642;47.556;18.728;2023-05-21T00:48:21;99762.09;;;20.42;54.35
51249;BME280;39642;47.556;18.728;2023-05-21T00:50:48;99765.63;;;20.43;54.35
51249;BME280;39642;47.556;18.728;2023-05-21T00:53:14;99763.03;;;20.41;54.35
51249;BME280;39642;47.556;18.728;2023-05-21T00:55:44;99754.16;;;20.42;54.32
51249;BME280;39642;47.556;18.728;2023-05-21T00:58:10;99760.41;;;20.41;54.34
51249;BME280;39642;47.556;18.728;2023-05-21T01:00:37;99763.88;;;20.42;54.34
51249;BME280;39642;47.556;18.728;2023-05-21T01:03:05;99760.41;;;20.41;54.34
51249;BME280;39642;47.556;18.728;2023-05-21T01:05:31;99763.88;;;20.42;54.33
51249;BME280;39642;47.556;18.728;2023-05-21T01:07:57;99756.91;;;20.41;54.34
51249;BME280;39642;47.556;18.728;2023-05-21T01:10:25;99757.75;;;20.41;54.34
51249;BME280;39642;47.556;18.728;2023-05-21T01:12:52;99753.31;;;20.42;54.33
51249;BME280;39642;47.556;18.728;2023-05-21T01:15:19;99748.03;;;20.42;54.29
51249;BME280;39642;47.556;18.728;2023-05-21T01:17:46;99741.87;;;20.41;54.30
51249;BME280;39642;47.556;18.728;2023-05-21T01:20:15;99736.69;;;20.39;54.29
51249;BME280;39642;47.556;18.728;2023-05-21T01:22:51;99739.31;;;20.39;54.29
51249;BME280;39642;47.556;18.728;2023-05-21T01:25:17;99735.75;;;20.41;54.28
51249;BME280;39642;47.556;18.728;2023-05-21T01:27:43;99738.41;;;20.41;54.27
51249;BME280;39642;47.556;18.728;2023-05-21T01:30:09;99726.87;;;20.42;54.26
51249;BME280;39642;47.556;18.728;2023-05-21T01:33:01;99728.66;;;20.41;54.26
51249;BME280;39642;47.556;18.728;2023-05-21T01:35:32;99731.41;;;20.39;54.26
51249;BME280;39642;47.556;18.728;2023-05-21T01:38:59;99728.75;;;20.39;54.26
51249;BME280;39642;47.556;18.728;2023-05-21T01:41:08;99728.75;;;20.39;54.21
51249;BME280;39642;47.556;18.728;2023-05-21T01:43:37;99732.28;;;20.40;54.24
51249;BME280;39642;47.556;18.728;2023-05-21T01:46:04;99728.75;;;20.39;54.20
51249;BME280;39642;47.556;18.728;2023-05-21T01:48:33;99728.75;;;20.39;54.18
51249;BME280;39642;47.556;18.728;2023-05-21T01:51:01;99724.34;;;20.40;54.15
51249;BME280;39642;47.556;18.728;2023-05-21T01:53:28;99727.81;;;20.41;54.12
51249;BME280;39642;47.556;18.728;2023-05-21T01:55:54;99732.28;;;20.40;54.12
51249;BME280;39642;47.556;18.728;2023-05-21T01:58:20;99723.47;;;20.39;54.09
51249;BME280;39642;47.556;18.728;2023-05-21T02:00:47;99719.03;;;20.40;54.11
51249;BME280;39642;47.556;18.728;2023-05-21T02:03:16;99725.25;;;20.39;54.11
51249;BME280;39642;47.556;18.728;2023-05-21T02:05:43;99727.91;;;20.39;54.12
51249;BME280;39642;47.556;18.728;2023-05-21T02:08:08;99727.91;;;20.39;54.11
51249;BME280;39642;47.556;18.728;2023-05-21T02:10:35;99725.25;;;20.39;54.09
51249;BME280;39642;47.556;18.728;2023-05-21T02:13:01;99722.69;;;20.37;54.11
51249;BME280;39642;47.556;18.728;2023-05-21T02:15:27;99737.62;;;20.38;54.11
51249;BME280;39642;47.556;18.728;2023-05-21T02:17:52;99731.50;;;20.38;54.10
51249;BME280;39642;47.556;18.728;2023-05-21T02:20:18;99730.62;;;20.37;54.10
51249;BME280;39642;47.556;18.728;2023-05-21T02:22:46;99730.62;;;20.37;54.08
51249;BME280;39642;47.556;18.728;2023-05-21T02:25:14;99729.78;;;20.37;54.07
51249;BME280;39642;47.556;18.728;2023-05-21T02:27:41;99739.44;;;20.38;54.04
51249;BME280;39642;47.556;18.728;2023-05-21T02:30:10;99739.44;;;20.38;54.04
51249;BME280;39642;47.556;18.728;2023-05-21T02:32:36;99733.28;;;20.37;54.03
51249;BME280;39642;47.556;18.728;2023-05-21T02:35:04;99728.94;;;20.36;54.01
51249;BME280;39642;47.556;18.728;2023-05-21T02:37:30;99726.22;;;20.38;54.00
51249;BME280;39642;47.556;18.728;2023-05-21T02:40:01;99725.34;;;20.37;54.00
51249;BME280;39642;47.556;18.728;2023-05-21T02:42:27;99724.50;;;20.37;53.99
51249;BME280;39642;47.556;18.728;2023-05-21T02:44:52;99727.13;;;20.37;53.99
51249;BME280;39642;47.556;18.728;2023-05-21T02:47:18;99722.81;;;20.36;53.98
51249;BME280;39642;47.556;18.728;2023-05-21T02:49:45;99728.94;;;20.36;53.97
51249;BME280;39642;47.556;18.728;2023-05-21T02:52:11;99735.06;;;20.37;53.98
51249;BME280;39642;47.556;18.728;2023-05-21T02:54:38;99731.59;;;20.36;53.96
51249;BME280;39642;47.556;18.728;2023-05-21T02:57:04;99734.22;;;20.36;53.95
51249;BME280;39642;47.556;18.728;2023-05-21T02:59:30;99738.69;;;20.36;53.95
51249;BME280;39642;47.556;18.728;2023-05-21T03:01:56;99737.81;;;20.35;53.93
51249;BME280;39642;47.556;18.728;2023-05-21T03:04:22;99734.22;;;20.36;53.95
51249;BME280;39642;47.556;18.728;2023-05-21T03:06:48;99724.59;;;20.35;53.92
51249;BME280;39642;47.556;18.728;2023-05-21T03:09:21;99729.91;;;20.35;53.91
51249;BME280;39642;47.556;18.728;2023-05-21T03:11:48;99730.75;;;20.36;53.88
51249;BME280;39642;47.556;18.728;2023-05-21T03:14:14;99724.59;;;20.35;53.88
51249;BME280;39642;47.556;18.728;2023-05-21T03:16:41;99731.66;;;20.35;53.89
51249;BME280;39642;47.556;18.728;2023-05-21T03:19:09;99726.50;;;20.33;53.86
51249;BME280;39642;47.556;18.728;2023-05-21T03:21:35;99722.03;;;20.34;53.84
51249;BME280;39642;47.556;18.728;2023-05-21T03:24:03;99726.37;;;20.35;53.83
51249;BME280;39642;47.556;18.728;2023-05-21T03:26:29;99730.81;;;20.34;53.80
51249;BME280;39642;47.556;18.728;2023-05-21T03:28:55;99728.19;;;20.34;53.80
51249;BME280;39642;47.556;18.728;2023-05-21T03:31:22;99736.88;;;20.36;53.77
51249;BME280;39642;47.556;18.728;2023-05-21T03:33:48;99731.59;;;20.36;53.74
51249;BME280;39642;47.556;18.728;2023-05-21T03:36:14;99735.19;;;20.35;53.74
51249;BME280;39642;47.556;18.728;2023-05-21T03:38:40;99732.53;;;20.35;53.71
51249;BME280;39642;47.556;18.728;2023-05-21T03:41:07;99732.63;;;20.34;53.69
51249;BME280;39642;47.556;18.728;2023-05-21T03:43:33;99735.25;;;20.34;53.69
51249;BME280;39642;47.556;18.728;2023-05-21T03:45:59;99732.53;;;20.35;53.67
51249;BME280;39642;47.556;18.728;2023-05-21T03:48:25;99732.53;;;20.35;53.68
51249;BME280;39642;47.556;18.728;2023-05-21T03:50:51;99732.53;;;20.35;53.67
51249;BME280;39642;47.556;18.728;2023-05-21T03:53:17;99733.38;;;20.36;53.67
51249;BME280;39642;47.556;18.728;2023-05-21T03:55:43;99728.09;;;20.36;53.66
51249;BME280;39642;47.556;18.728;2023-05-21T03:58:09;99736.88;;;20.36;53.65
51249;BME280;39642;47.556;18.728;2023-05-21T04:00:36;99740.38;;;20.37;53.64
51249;BME280;39642;47.556;18.728;2023-05-21T04:03:03;99736.03;;;20.36;53.62
51249;BME280;39642;47.556;18.728;2023-05-21T04:05:29;99737.81;;;20.35;53.62
51249;BME280;39642;47.556;18.728;2023-05-21T04:07:55;99735.19;;;20.35;53.63
51249;BME280;39642;47.556;18.728;2023-05-21T04:10:20;99732.53;;;20.35;53.63
51249;BME280;39642;47.556;18.728;2023-05-21T04:12:47;99741.31;;;20.36;53.63
51249;BME280;39642;47.556;18.728;2023-05-21T04:15:20;99736.94;;;20.35;53.66
51249;BME280;39642;47.556;18.728;2023-05-21T04:17:46;99735.25;;;20.34;53.68
51249;BME280;39642;47.556;18.728;2023-05-21T04:20:12;99746.69;;;20.34;53.63
51249;BME280;39642;47.556;18.728;2023-05-21T04:22:38;99748.41;;;20.35;53.61
51249;BME280;39642;47.556;18.728;2023-05-21T04:25:05;99743.13;;;20.35;53.60
51249;BME280;39642;47.556;18.728;2023-05-21T04:27:31;99736.94;;;20.35;53.58
51249;BME280;39642;47.556;18.728;2023-05-21T04:29:56;99737.91;;;20.34;53.58
51249;BME280;39642;47.556;18.728;2023-05-21T04:32:23;99736.09;;;20.34;53.58
51249;BME280;39642;47.556;18.728;2023-05-21T04:34:48;99730.81;;;20.34;53.56
51249;BME280;39642;47.556;18.728;2023-05-21T04:37:15;99730.81;;;20.34;53.55
51249;BME280;39642;47.556;18.728;2023-05-21T04:39:44;99739.59;;;20.35;53.58
51249;BME280;39642;47.556;18.728;2023-05-21T04:42:11;99740.47;;;20.35;53.57
51249;BME280;39642;47.556;18.728;2023-05-21T04:44:37;99741.41;;;20.34;53.55
51249;BME280;39642;47.556;18.728;2023-05-21T04:47:05;99749.31;;;20.34;53.55
51249;BME280;39642;47.556;18.728;2023-05-21T04:49:32;99750.19;;;20.35;53.54
51249;BME280;39642;47.556;18.728;2023-05-21T04:52:00;99743.97;;;20.36;53.51
51249;BME280;39642;47.556;18.728;2023-05-21T04:54:27;99748.41;;;20.35;53.51
51249;BME280;39642;47.556;18.728;2023-05-21T04:56:53;99746.69;;;20.34;53.51
51249;BME280;39642;47.556;18.728;2023-05-21T04:59:19;99751.91;;;20.36;53.51
51249;BME280;39642;47.556;18.728;2023-05-21T05:01:46;99753.69;;;20.35;53.50
51249;BME280;39642;47.556;18.728;2023-05-21T05:04:12;99753.69;;;20.35;53.47
51249;BME280;39642;47.556;18.728;2023-05-21T05:06:38;99761.62;;;20.35;53.47
51249;BME280;39642;47.556;18.728;2023-05-21T05:09:03;99755.38;;;20.36;53.46
51249;BME280;39642;47.556;18.728;2023-05-21T05:11:29;99755.38;;;20.36;53.44
51249;BME280;39642;47.556;18.728;2023-05-21T05:13:55;99756.22;;;20.37;53.43
51249;BME280;39642;47.556;18.728;2023-05-21T05:16:21;99755.38;;;20.36;53.39
51249;BME280;39642;47.556;18.728;2023-05-21T05:18:51;99739.50;;;20.36;53.39
51249;BME280;39642;47.556;18.728;2023-05-21T05:21:17;99746.50;;;20.37;53.38
51249;BME280;39642;47.556;18.728;2023-05-21T05:23:43;99748.22;;;20.38;53.37
51249;BME280;39642;47.556;18.728;2023-05-21T05:26:09;99740.28;;;20.38;53.35
51249;BME280;39642;47.556;18.728;2023-05-21T05:28:35;99737.62;;;20.38;53.32
51249;BME280;39642;47.556;18.728;2023-05-21T05:31:01;99739.31;;;20.39;53.31
51249;BME280;39642;47.556;18.728;2023-05-21T05:33:27;99731.41;;;20.39;53.31
51249;BME280;39642;47.556;18.728;2023-05-21T05:35:53;99733.97;;;20.41;53.31
51249;BME280;39642;47.556;18.728;2023-05-21T05:38:19;99737.44;;;20.42;53.28
51249;BME280;39642;47.556;18.728;2023-05-21T05:40:45;99733.97;;;20.41;53.26
51249;BME280;39642;47.556;18.728;2023-05-21T05:43:11;99726.87;;;20.42;53.25
51249;BME280;39642;47.556;18.728;2023-05-21T05:45:37;99729.50;;;20.42;53.26
51249;BME280;39642;47.556;18.728;2023-05-21T05:48:03;99733.00;;;20.42;53.25
51249;BME280;39642;47.556;18.728;2023-05-21T05:50:28;99734.72;;;20.43;53.26
51249;BME280;39642;47.556;18.728;2023-05-21T05:52:54;99729.44;;;20.43;53.23
51249;BME280;39642;47.556;18.728;2023-05-21T05:55:20;99729.44;;;20.43;53.19
51249;BME280;39642;47.556;18.728;2023-05-21T05:57:46;99732.00;;;20.45;53.21
51249;BME280;39642;47.556;18.728;2023-05-21T06:00:13;99731.12;;;20.44;53.16
51249;BME280;39642;47.556;18.728;2023-05-21T06:02:39;99738.12;;;20.45;53.22
51249;BME280;39642;47.556;18.728;2023-05-21T06:05:05;99742.56;;;20.45;53.21
51249;BME280;39642;47.556;18.728;2023-05-21T06:07:32;99742.56;;;20.45;53.20
51249;BME280;39642;47.556;18.728;2023-05-21T06:09:58;99747.75;;;20.46;53.19
51249;BME280;39642;47.556;18.728;2023-05-21T06:12:24;99734.53;;;20.46;53.19
51249;BME280;39642;47.556;18.728;2023-05-21T06:14:50;99735.41;;;20.47;53.17
51249;BME280;39642;47.556;18.728;2023-05-21T06:17:16;99738.88;;;20.47;53.20
51249;BME280;39642;47.556;18.728;2023-05-21T06:19:42;99741.53;;;20.47;53.18
51249;BME280;39642;47.556;18.728;2023-05-21T06:22:09;99736.25;;;20.47;53.18
51249;BME280;39642;47.556;18.728;2023-05-21T06:24:35;99740.59;;;20.48;53.16
51249;BME280;39642;47.556;18.728;2023-05-21T06:27:01;99737.09;;;20.48;53.17
51249;BME280;39642;47.556;18.728;2023-05-21T06:29:28;99736.13;;;20.49;53.14
51249;BME280;39642;47.556;18.728;2023-05-21T06:31:54;99734.37;;;20.49;53.10
51249;BME280;39642;47.556;18.728;2023-05-21T06:34:20;99729.06;;;20.49;53.12
51249;BME280;39642;47.556;18.728;2023-05-21T06:36:47;99724.63;;;20.50;53.16
51249;BME280;39642;47.556;18.728;2023-05-21T06:39:13;99727.28;;;20.50;53.16
51249;BME280;39642;47.556;18.728;2023-05-21T06:41:39;99723.66;;;20.51;53.11
51249;BME280;39642;47.556;18.728;2023-05-21T06:44:04;99725.41;;;20.52;53.13
51249;BME280;39642;47.556;18.728;2023-05-21T06:46:31;99723.59;;;20.52;53.09
51249;BME280;39642;47.556;18.728;2023-05-21T06:48:57;99720.88;;;20.54;53.06
51249;BME280;39642;47.556;18.728;2023-05-21T06:51:22;99727.84;;;20.55;53.06
51249;BME280;39642;47.556;18.728;2023-05-21T06:53:48;99726.00;;;20.57;53.05
51249;BME280;39642;47.556;18.728;2023-05-21T06:56:14;99725.16;;;20.56;52.93
51249;BME280;39642;47.556;18.728;2023-05-21T06:58:40;99728.63;;;20.57;52.95
51249;BME280;39642;47.556;18.728;2023-05-21T07:01:06;99718.06;;;20.57;52.88
51249;BME280;39642;47.556;18.728;2023-05-21T07:03:32;99723.25;;;20.58;52.88
51249;BME280;39642;47.556;18.728;2023-05-21T07:05:58;99717.88;;;20.60;53.02
51249;BME280;39642;47.556;18.728;2023-05-21T07:08:24;99712.56;;;20.60;52.89
51249;BME280;39642;47.556;18.728;2023-05-21T07:10:50;99708.16;;;20.61;52.71
51249;BME280;39642;47.556;18.728;2023-05-21T07:13:15;99707.28;;;20.60;52.74
51249;BME280;39642;47.556;18.728;2023-05-21T07:15:41;99712.50;;;20.62;52.88
51249;BME280;39642;47.556;18.728;2023-05-21T07:18:07;99706.28;;;20.63;52.80
51249;BME280;39642;47.556;18.728;2023-05-21T07:20:33;99707.12;;;20.63;52.86
51249;BME280;39642;47.556;18.728;2023-05-21T07:22:59;99700.88;;;20.64;52.90
51249;BME280;39642;47.556;18.728;2023-05-21T07:25:25;99696.53;;;20.63;52.34
51249;BME280;39642;47.556;18.728;2023-05-21T07:27:51;99706.16;;;20.64;52.85
51249;BME280;39642;47.556;18.728;2023-05-21T07:30:17;99703.50;;;20.64;52.99
51249;BME280;39642;47.556;18.728;2023-05-21T07:32:43;99704.28;;;20.66;53.08
51249;BME280;39642;47.556;18.728;2023-05-21T07:35:08;99712.22;;;20.66;53.08
51249;BME280;39642;47.556;18.728;2023-05-21T07:37:34;99701.63;;;20.66;52.96
51249;BME280;39642;47.556;18.728;2023-05-21T07:40:00;99706.00;;;20.67;53.14
51249;BME280;39642;47.556;18.728;2023-05-21T07:42:26;99696.25;;;20.68;53.19
51249;BME280;39642;47.556;18.728;2023-05-21T07:44:52;99700.69;;;20.67;53.24
51249;BME280;39642;47.556;18.728;2023-05-21T07:47:18;99698.91;;;20.68;53.24
51249;BME280;39642;47.556;18.728;2023-05-21T07:49:44;99702.38;;;20.68;53.24
51249;BME280;39642;47.556;18.728;2023-05-21T07:52:10;99696.16;;;20.69;53.27
51249;BME280;39642;47.556;18.728;2023-05-21T07:54:36;99690.88;;;20.69;53.31
51249;BME280;39642;47.556;18.728;2023-05-21T07:57:01;99699.66;;;20.70;53.31
51249;BME280;39642;47.556;18.728;2023-05-21T07:59:27;99687.28;;;20.70;53.33
51249;BME280;39642;47.556;18.728;2023-05-21T08:01:54;99688.97;;;20.71;53.33
51249;BME280;39642;47.556;18.728;2023-05-21T08:04:20;99688.03;;;20.72;53.33
51249;BME280;39642;47.556;18.728;2023-05-21T08:06:46;99683.66;;;20.71;53.35
51249;BME280;39642;47.556;18.728;2023-05-21T08:09:13;99688.03;;;20.72;53.39
51249;BME280;39642;47.556;18.728;2023-05-21T08:11:39;99688.03;;;20.72;53.38
51249;BME280;39642;47.556;18.728;2023-05-21T08:14:05;99690.59;;;20.74;53.38
51249;BME280;39642;47.556;18.728;2023-05-21T08:16:31;99693.12;;;20.75;53.38
51249;BME280;39642;47.556;18.728;2023-05-21T08:18:57;99692.28;;;20.75;53.37
51249;BME280;39642;47.556;18.728;2023-05-21T08:21:23;99695.69;;;20.77;53.40
51249;BME280;39642;47.556;18.728;2023-05-21T08:23:51;99694.84;;;20.76;53.40
51249;BME280;39642;47.556;18.728;2023-05-21T08:26:17;99682.53;;;20.75;53.36
51249;BME280;39642;47.556;18.728;2023-05-21T08:28:43;99691.25;;;20.77;53.24
51249;BME280;39642;47.556;18.728;2023-05-21T08:31:08;99687.66;;;20.78;53.31
51249;BME280;39642;47.556;18.728;2023-05-21T08:33:34;99687.66;;;20.78;53.27
51249;BME280;39642;47.556;18.728;2023-05-21T08:36:05;99692.97;;;20.78;53.33
51249;BME280;39642;47.556;18.728;2023-05-21T08:38:31;99697.28;;;20.79;53.33
51249;BME280;39642;47.556;18.728;2023-05-21T08:40:58;99689.34;;;20.79;53.33
51249;BME280;39642;47.556;18.728;2023-05-21T08:43:27;99689.34;;;20.79;53.33
51249;BME280;39642;47.556;18.728;2023-05-21T08:45:55;99691.06;;;20.81;53.32
51249;BME280;39642;47.556;18.728;2023-05-21T08:48:22;99686.50;;;20.83;53.14
51249;BME280;39642;47.556;18.728;2023-05-21T08:50:52;99692.69;;;20.83;53.27
51249;BME280;39642;47.556;18.728;2023-05-21T08:53:19;99691.72;;;20.84;53.22
51249;BME280;39642;47.556;18.728;2023-05-21T08:55:45;99689.91;;;20.85;53.21
51249;BME280;39642;47.556;18.728;2023-05-21T08:58:11;99686.44;;;20.84;53.09
51249;BME280;39642;47.556;18.728;2023-05-21T09:00:38;99682.84;;;20.85;52.96
51249;BME280;39642;47.556;18.728;2023-05-21T09:03:04;99693.44;;;20.85;52.40
51249;BME280;39642;47.556;18.728;2023-05-21T09:05:38;99691.62;;;20.86;52.24
51249;BME280;39642;47.556;18.728;2023-05-21T09:08:05;99688.87;;;20.87;52.91
51249;BME280;39642;47.556;18.728;2023-05-21T09:10:36;99692.38;;;20.88;52.87
51249;BME280;39642;47.556;18.728;2023-05-21T09:13:03;99690.69;;;20.87;52.74
51249;BME280;39642;47.556;18.728;2023-05-21T09:15:29;99693.25;;;20.88;52.97
51249;BME280;39642;47.556;18.728;2023-05-21T09:17:56;99693.25;;;20.88;52.96
51249;BME280;39642;47.556;18.728;2023-05-21T09:20:26;99688.78;;;20.89;52.90
51249;BME280;39642;47.556;18.728;2023-05-21T09:22:53;99686.97;;;20.89;52.83
51249;BME280;39642;47.556;18.728;2023-05-21T09:25:24;99687.94;;;20.88;52.57
51249;BME280;39642;47.556;18.728;2023-05-21T09:28:00;99689.63;;;20.89;52.49
51249;BME280;39642;47.556;18.728;2023-05-21T09:30:26;99690.59;;;20.88;52.44
51249;BME280;39642;47.556;18.728;2023-05-21T09:32:55;99683.50;;;20.89;52.41
51249;BME280;39642;47.556;18.728;2023-05-21T09:35:21;99678.19;;;20.89;51.75
51249;BME280;39642;47.556;18.728;2023-05-21T09:37:48;99679.03;;;20.89;52.41
51249;BME280;39642;47.556;18.728;2023-05-21T09:42:42;99682.56;;;20.90;52.06
51249;BME280;39642;47.556;18.728;2023-05-21T09:45:10;99685.22;;;20.90;52.61
51249;BME280;39642;47.556;18.728;2023-05-21T09:47:43;99687.84;;;20.90;52.09
51249;BME280;39642;47.556;18.728;2023-05-21T09:50:19;99681.69;;;20.89;52.25
51249;BME280;39642;47.556;18.728;2023-05-21T09:52:47;99681.69;;;20.89;52.21
51249;BME280;39642;47.556;18.728;2023-05-21T09:55:15;99679.03;;;20.89;51.98
51249;BME280;39642;47.556;18.728;2023-05-21T09:57:46;99683.50;;;20.89;51.57
51249;BME280;39642;47.556;18.728;2023-05-21T10:00:22;99687.84;;;20.90;50.90
51249;BME280;39642;47.556;18.728;2023-05-21T10:02:53;99681.69;;;20.89;50.67
51249;BME280;39642;47.556;18.728;2023-05-21T10:05:19;99684.34;;;20.89;50.71
51249;BME280;39642;47.556;18.728;2023-05-21T10:07:50;99675.56;;;20.89;51.11
51249;BME280;39642;47.556;18.728;2023-05-21T10:10:18;99679.91;;;20.90;50.75
51249;BME280;39642;47.556;18.728;2023-05-21T10:12:46;99676.31;;;20.91;50.42
51249;BME280;39642;47.556;18.728;2023-05-21T10:15:16;99678.03;;;20.92;50.32
51249;BME280;39642;47.556;18.728;2023-05-21T10:17:45;99690.31;;;20.93;50.32
51249;BME280;39642;47.556;18.728;2023-05-21T10:20:12;99681.41;;;20.94;50.34
51249;BME280;39642;47.556;18.728;2023-05-21T10:22:39;99676.13;;;20.94;50.96
51249;BME280;39642;47.556;18.728;2023-05-21T10:25:06;99669.97;;;20.93;50.35
51249;BME280;39642;47.556;18.728;2023-05-21T10:27:36;99674.41;;;20.93;50.14
51249;BME280;39642;47.556;18.728;2023-05-21T10:30:06;99671.69;;;20.94;50.05
51249;BME280;39642;47.556;18.728;2023-05-21T10:32:32;99668.94;;;20.96;50.03
51249;BME280;39642;47.556;18.728;2023-05-21T10:34:58;99668.94;;;20.96;50.04
51249;BME280;39642;47.556;18.728;2023-05-21T10:37:25;99663.63;;;20.96;50.05
51249;BME280;39642;47.556;18.728;2023-05-21T10:39:53;99662.78;;;20.95;50.19
51249;BME280;39642;47.556;18.728;2023-05-21T10:47:52;99671.56;;;20.96;49.82
51249;BME280;39642;47.556;18.728;2023-05-21T11:01:34;99659.00;;;20.99;49.10
51249;BME280;39642;47.556;18.728;2023-05-21T11:04:01;99655.41;;;21.00;48.65
51249;BME280;39642;47.556;18.728;2023-05-21T11:06:28;99654.47;;;21.02;48.77
51249;BME280;39642;47.556;18.728;2023-05-21T11:08:54;99662.34;;;21.03;48.75
51249;BME280;39642;47.556;18.728;2023-05-21T11:11:56;99657.97;;;21.02;48.95
51249;BME280;39642;47.556;18.728;2023-05-21T11:14:39;99661.44;;;21.03;49.33
51249;BME280;39642;47.556;18.728;2023-05-21T11:17:36;99655.31;;;21.02;50.54
51249;BME280;39642;47.556;18.728;2023-05-21T11:20:06;99657.13;;;21.02;49.37
51249;BME280;39642;47.556;18.728;2023-05-21T11:22:34;99652.75;;;21.00;48.80
51249;BME280;39642;47.556;18.728;2023-05-21T11:25:01;99652.75;;;21.00;49.24
51249;BME280;39642;47.556;18.728;2023-05-21T11:30:04;99645.69;;;21.01;48.57
51249;BME280;39642;47.556;18.728;2023-05-21T11:32:31;99639.44;;;21.02;48.56
51249;BME280;39642;47.556;18.728;2023-05-21T11:34:59;99634.06;;;21.04;48.60
51249;BME280;39642;47.556;18.728;2023-05-21T11:37:26;99636.59;;;21.05;48.65
51249;BME280;39642;47.556;18.728;2023-05-21T11:39:54;99649.72;;;21.07;48.72
51249;BME280;39642;47.556;18.728;2023-05-21T11:42:31;99644.44;;;21.07;48.93
51249;BME280;39642;47.556;18.728;2023-05-21T11:44:58;99644.44;;;21.07;48.50
51249;BME280;39642;47.556;18.728;2023-05-21T11:47:25;99639.06;;;21.08;48.48
51249;BME280;39642;47.556;18.728;2023-05-21T11:49:51;99636.41;;;21.08;48.21
51249;BME280;39642;47.556;18.728;2023-05-21T11:52:17;99635.16;;;21.14;48.12
51249;BME280;39642;47.556;18.728;2023-05-21T11:54:48;99634.78;;;21.20;48.08
51249;BME280;39642;47.556;18.728;2023-05-21T11:57:16;99639.84;;;21.23;48.06
51249;BME280;39642;47.556;18.728;2023-05-21T11:59:44;99632.78;;;21.24;48.24
51249;BME280;39642;47.556;18.728;2023-05-21T12:02:15;99629.38;;;21.21;48.50
51249;BME280;39642;47.556;18.728;2023-05-21T12:04:42;99633.94;;;21.19;49.83
51249;BME280;39642;47.556;18.728;2023-05-21T12:07:09;99632.34;;;21.17;48.64
51249;BME280;39642;47.556;18.728;2023-05-21T12:09:43;99628.09;;;21.14;48.50
51249;BME280;39642;47.556;18.728;2023-05-21T12:12:10;99623.72;;;21.13;48.64
51249;BME280;39642;47.556;18.728;2023-05-21T12:14:38;99616.75;;;21.12;48.84
51249;BME280;39642;47.556;18.728;2023-05-21T12:17:05;99622.13;;;21.11;49.42
51249;BME280;39642;47.556;18.728;2023-05-21T12:19:38;99622.22;;;21.09;49.18
51249;BME280;39642;47.556;18.728;2023-05-21T12:22:05;99615.22;;;21.08;49.00
51249;BME280;39642;47.556;18.728;2023-05-21T12:24:32;99609.09;;;21.08;48.77
51249;BME280;39642;47.556;18.728;2023-05-21T12:26:59;99614.38;;;21.08;48.92
51249;BME280;39642;47.556;18.728;2023-05-21T12:29:27;99609.94;;;21.08;48.81
51249;BME280;39642;47.556;18.728;2023-05-21T12:31:53;99608.97;;;21.09;48.65
51249;BME280;39642;47.556;18.728;2023-05-21T12:37:07;99604.56;;;21.10;48.77
51249;BME280;39642;47.556;18.728;2023-05-21T12:39:42;99600.09;;;21.10;48.52
51249;BME280;39642;47.556;18.728;2023-05-21T12:42:08;99596.59;;;21.10;48.57
51249;BME280;39642;47.556;18.728;2023-05-21T12:44:34;99604.44;;;21.11;48.56
51249;BME280;39642;47.556;18.728;2023-05-21T12:47:01;99597.34;;;21.12;48.59
51249;BME280;39642;47.556;18.728;2023-05-21T12:49:40;99596.41;;;21.13;48.64
51249;BME280;39642;47.556;18.728;2023-05-21T12:52:10;99593.75;;;21.13;48.54
51249;BME280;39642;47.556;18.728;2023-05-21T12:54:39;99595.44;;;21.14;48.47
51249;BME280;39642;47.556;18.728;2023-05-21T12:57:15;99589.22;;;21.15;48.28
51249;BME280;39642;47.556;18.728;2023-05-21T12:59:43;99583.78;;;21.16;48.28
51249;BME280;39642;47.556;18.728;2023-05-21T13:02:14;99586.44;;;21.16;48.27
51249;BME280;39642;47.556;18.728;2023-05-21T13:04:41;99581.16;;;21.16;48.08
51249;BME280;39642;47.556;18.728;2023-05-21T13:07:06;99584.56;;;21.18;48.42
51249;BME280;39642;47.556;18.728;2023-05-21T13:09:32;99576.53;;;21.20;48.20
51249;BME280;39642;47.556;18.728;2023-05-21T13:11:58;99575.69;;;21.19;48.11
51249;BME280;39642;47.556;18.728;2023-05-21T13:14:24;99570.38;;;21.19;47.84
51249;BME280;39642;47.556;18.728;2023-05-21T13:16:50;99566.69;;;21.22;47.89